Time;durP1;ratioP1;P1;durP2;ratioP2;P2;SDS_P1;SDS_P2;PMS_P1;PMS_P2;Temp;Humidity;BMP_temperature;BMP_pressure;BME280_temperature;BME280_humidity;BME280_pressure;Samples;Min_cycle;Max_cycle;Signal;HPM_P1;HPM_P2
2022/11/10 00:01:10;;;;;;;6.53;0.95;;;11.10;99.90;;;;;;5079288;28;20020;-71
2022/11/10 00:03:39;;;;;;;7.18;2.20;;;11.00;99.90;;;;;;5079505;28;20120;-71
2022/11/10 00:06:08;;;;;;;10.35;2.17;;;11.00;99.90;;;;;;5079441;28;20327;-71
2022/11/10 00:08:36;;;;;;;9.00;1.95;;;11.00;99.90;;;;;;5080196;28;20396;-71
2022/11/10 00:11:07;;;;;;;10.05;1.63;;;10.90;99.90;;;;;;5079979;28;20027;-71
2022/11/10 00:16:59;;;;;;;13.52;2.67;;;10.90;99.90;;;;;;5079700;28;20155;-71
2022/11/10 00:19:10;;;;;;;9.02;2.08;;;10.90;99.90;;;;;;5079944;28;20079;-71
2022/11/10 00:21:37;;;;;;;13.30;3.08;;;10.90;99.90;;;;;;5061726;28;20032;-71
2022/11/10 00:24:04;;;;;;;10.25;1.85;;;10.90;99.90;;;;;;5079226;28;20017;-71
2022/11/10 00:26:31;;;;;;;9.32;2.30;;;10.90;99.90;;;;;;5079447;28;20040;-71
2022/11/10 00:28:59;;;;;;;8.18;1.75;;;11.00;99.90;;;;;;5079141;28;20017;-71
2022/11/10 00:31:27;;;;;;;10.25;2.30;;;10.90;99.90;;;;;;5061913;28;20289;-71
2022/11/10 00:33:55;;;;;;;9.13;1.98;;;11.00;99.90;;;;;;5079086;28;20027;-71
2022/11/10 00:36:23;;;;;;;13.52;1.85;;;11.00;99.90;;;;;;5079006;28;20017;-71
2022/11/10 00:38:53;;;;;;;11.00;2.47;;;11.00;99.90;;;;;;5079525;28;20360;-71
2022/11/10 00:41:20;;;;;;;7.32;2.30;;;11.00;99.90;;;;;;5061914;28;20112;-71
2022/11/10 00:43:49;;;;;;;11.80;3.03;;;11.00;99.90;;;;;;5078971;28;20424;-71
2022/11/10 00:46:16;;;;;;;14.65;2.40;;;11.10;99.90;;;;;;5078033;28;20374;-71
2022/11/10 00:48:44;;;;;;;12.70;2.65;;;11.10;99.90;;;;;;5078829;28;20017;-71
2022/11/10 00:51:24;;;;;;;7.63;2.13;;;11.00;99.90;;;;;;5079220;28;20017;-71
2022/11/10 00:53:52;;;;;;;12.63;1.88;;;11.00;99.90;;;;;;5079372;28;20290;-71
2022/11/10 00:56:21;;;;;;;6.70;1.77;;;11.00;99.90;;;;;;5060992;28;20051;-71
2022/11/10 00:58:49;;;;;;;21.42;3.75;;;11.00;99.90;;;;;;5078874;28;20028;-71
2022/11/10 01:01:18;;;;;;;12.05;3.40;;;11.00;99.90;;;;;;5078176;28;20028;-71
2022/11/10 01:03:45;;;;;;;10.38;2.05;;;11.00;99.90;;;;;;5078001;28;20025;-71
2022/11/10 01:06:14;;;;;;;13.80;2.63;;;11.00;99.90;;;;;;5078438;28;20021;-72
2022/11/10 01:08:42;;;;;;;12.32;2.40;;;10.90;99.90;;;;;;5060623;28;20431;-71
2022/11/10 01:11:14;;;;;;;11.52;2.70;;;10.90;99.90;;;;;;5078281;28;20024;-71
2022/11/10 01:13:42;;;;;;;13.05;2.38;;;10.90;99.90;;;;;;5078930;28;20423;-71
2022/11/10 01:16:16;;;;;;;18.17;3.25;;;10.90;99.90;;;;;;5078600;28;20408;-71
2022/11/10 01:29:03;;;;;;;12.93;4.40;;;10.90;99.90;;;;;;5078250;28;20115;-71
2022/11/10 01:31:30;;;;;;;11.15;3.83;;;10.90;99.90;;;;;;5078425;28;20024;-71
2022/11/10 01:33:59;;;;;;;13.25;4.50;;;10.80;99.90;;;;;;5078427;28;20059;-71
2022/11/10 01:36:26;;;;;;;8.70;3.80;;;10.80;99.90;;;;;;5078218;28;20366;-72
2022/11/10 01:38:54;;;;;;;13.88;4.32;;;10.80;99.90;;;;;;5043463;28;20082;-71
2022/11/10 01:41:21;;;;;;;12.85;3.95;;;10.90;99.90;;;;;;5078550;28;20253;-71
2022/11/10 01:43:48;;;;;;;14.32;3.80;;;10.90;99.90;;;;;;5076611;28;20074;-71
2022/11/10 01:46:16;;;;;;;13.25;4.38;;;10.80;99.90;;;;;;5077528;28;20090;-71
2022/11/10 01:49:02;;;;;;;12.50;4.30;;;10.80;99.90;;;;;;5078115;28;20096;-71
2022/11/10 01:51:31;;;;;;;14.43;3.67;;;10.80;99.90;;;;;;5077719;28;20016;-71
2022/11/10 01:54:06;;;;;;;9.20;3.60;;;10.80;99.90;;;;;;5059772;28;20029;-71
2022/11/10 01:56:39;;;;;;;10.47;4.30;;;10.80;99.90;;;;;;5077989;28;20020;-71
2022/11/10 01:59:12;;;;;;;15.65;3.72;;;10.70;99.90;;;;;;5076608;28;20016;-71
2022/11/10 02:01:40;;;;;;;13.32;4.40;;;10.70;99.90;;;;;;5077093;28;20090;-71
2022/11/10 02:04:14;;;;;;;11.35;3.78;;;10.70;99.90;;;;;;5077217;28;20058;-71
2022/11/10 02:06:44;;;;;;;14.20;5.07;;;10.70;99.90;;;;;;5077812;28;20020;-71
2022/11/10 02:09:12;;;;;;;16.88;4.35;;;10.70;99.90;;;;;;5077206;28;20040;-71
2022/11/10 02:11:41;;;;;;;11.10;3.90;;;10.80;99.90;;;;;;5077313;28;20025;-71
2022/11/10 02:14:10;;;;;;;15.85;4.80;;;10.80;99.90;;;;;;5077099;28;20017;-71
2022/11/10 02:16:38;;;;;;;12.10;4.07;;;10.80;99.90;;;;;;5077221;28;20020;-71
2022/11/10 02:19:21;;;;;;;14.68;5.10;;;10.80;99.90;;;;;;5076345;28;20393;-71
2022/11/10 02:21:48;;;;;;;17.95;5.30;;;10.80;99.90;;;;;;5077647;28;20122;-71
2022/11/10 02:24:16;;;;;;;14.32;5.22;;;10.80;99.90;;;;;;5059800;28;20402;-71
2022/11/10 02:26:55;;;;;;;7.80;3.53;;;10.80;99.90;;;;;;5076885;28;20324;-71
2022/11/10 02:29:23;;;;;;;18.00;5.50;;;10.80;99.90;;;;;;5076481;28;20386;-71
2022/11/10 02:31:51;;;;;;;13.20;4.45;;;10.80;99.90;;;;;;5077232;28;20024;-71
2022/11/10 02:34:19;;;;;;;15.13;4.28;;;10.80;99.90;;;;;;5076794;28;20074;-71
2022/11/10 02:36:46;;;;;;;8.60;3.63;;;10.80;99.90;;;;;;5059225;28;20048;-71
2022/11/10 02:39:13;;;;;;;11.98;3.47;;;10.80;99.90;;;;;;5059686;28;20021;-71
2022/11/10 02:41:41;;;;;;;14.05;4.85;;;10.80;99.90;;;;;;5059108;28;20020;-71
2022/11/10 02:44:08;;;;;;;13.20;4.32;;;10.80;99.90;;;;;;5076961;28;20063;-71
2022/11/10 02:46:36;;;;;;;19.52;4.97;;;10.80;99.90;;;;;;5076625;28;20028;-71
2022/11/10 02:49:03;;;;;;;12.88;3.63;;;10.80;99.90;;;;;;5076644;28;20340;-71
2022/11/10 02:51:31;;;;;;;13.07;4.70;;;10.80;99.90;;;;;;5076656;28;20316;-71
2022/11/10 02:53:58;;;;;;;13.07;4.85;;;10.70;99.90;;;;;;5076574;28;20028;-71
2022/11/10 02:56:26;;;;;;;14.13;5.07;;;10.70;99.90;;;;;;5077095;28;20090;-71
2022/11/10 02:58:53;;;;;;;11.70;4.22;;;10.70;99.90;;;;;;5076464;28;20017;-71
2022/11/10 03:01:21;;;;;;;14.32;5.05;;;10.70;99.90;;;;;;5058738;28;20048;-71
2022/11/10 03:03:48;;;;;;;13.98;4.20;;;10.70;99.90;;;;;;5076958;28;20039;-71
2022/11/10 03:06:16;;;;;;;12.43;4.57;;;10.70;99.90;;;;;;5077013;28;20443;-71
2022/11/10 03:08:43;;;;;;;16.65;4.65;;;10.70;99.90;;;;;;5076884;28;20031;-72
2022/11/10 03:11:10;;;;;;;16.63;4.85;;;10.70;99.90;;;;;;5081320;28;20017;-71
2022/11/10 03:13:37;;;;;;;16.52;5.38;;;10.60;99.90;;;;;;5080533;28;20024;-71
2022/11/10 03:16:05;;;;;;;16.10;5.15;;;10.70;99.90;;;;;;5080946;28;20021;-71
2022/11/10 03:18:32;;;;;;;18.77;5.03;;;10.70;99.90;;;;;;5080510;28;20017;-71
2022/11/10 03:20:59;;;;;;;16.38;6.13;;;10.70;99.90;;;;;;5062814;28;20328;-71
2022/11/10 03:23:27;;;;;;;14.48;4.97;;;10.70;99.90;;;;;;5080331;28;20026;-71
2022/11/10 03:25:54;;;;;;;22.20;4.25;;;10.70;99.90;;;;;;5080368;28;20062;-71
2022/11/10 03:28:21;;;;;;;13.68;4.70;;;10.70;99.90;;;;;;5062495;28;20032;-71
2022/11/10 03:30:49;;;;;;;17.52;5.63;;;10.70;99.90;;;;;;5062469;28;20431;-71
2022/11/10 03:33:17;;;;;;;18.75;4.88;;;10.70;99.90;;;;;;5062434;28;20349;-71
2022/11/10 03:35:44;;;;;;;19.85;4.80;;;10.70;99.90;;;;;;5080162;28;20020;-71
2022/11/10 03:38:11;;;;;;;19.77;4.93;;;10.70;99.90;;;;;;5080680;28;20063;-72
2022/11/10 03:40:38;;;;;;;9.55;4.28;;;10.70;99.90;;;;;;5080245;28;20036;-71
2022/11/10 03:43:06;;;;;;;12.30;4.70;;;10.70;99.90;;;;;;5080501;28;20033;-71
2022/11/10 03:45:34;;;;;;;20.30;5.00;;;10.70;99.90;;;;;;5080533;28;20107;-71
2022/11/10 03:48:01;;;;;;;17.45;4.50;;;10.70;99.90;;;;;;5080405;28;20312;-71
2022/11/10 03:50:29;;;;;;;12.63;4.80;;;10.70;99.90;;;;;;5080299;28;20021;-71
2022/11/10 03:52:57;;;;;;;14.57;4.40;;;10.80;99.90;;;;;;5079827;28;20047;-71
2022/11/10 03:55:24;;;;;;;17.63;4.85;;;10.80;99.90;;;;;;5062075;28;20028;-71
2022/11/10 03:57:52;;;;;;;10.43;3.42;;;10.80;99.90;;;;;;5079967;28;20420;-71
2022/11/10 04:00:20;;;;;;;15.00;5.00;;;10.70;99.90;;;;;;5078885;28;20394;-71
2022/11/10 04:02:48;;;;;;;13.20;4.70;;;10.80;99.90;;;;;;5079195;28;20056;-71
2022/11/10 04:10:49;;;;;;;12.60;4.38;;;10.80;99.90;;;;;;5079700;28;20028;-71
2022/11/10 04:16:02;;;;;;;12.07;3.72;;;10.80;99.90;;;;;;5079374;28;20059;-71
2022/11/10 04:18:30;;;;;;;12.63;4.72;;;10.80;99.90;;;;;;5079280;28;20035;-71
2022/11/10 04:21:00;;;;;;;13.70;3.85;;;10.80;99.90;;;;;;5079096;28;20036;-71
2022/11/10 04:23:35;;;;;;;20.75;3.95;;;10.80;99.90;;;;;;5079172;28;20020;-71
2022/11/10 04:26:27;;;;;;;11.43;3.70;;;10.80;99.90;;;;;;5079269;28;20040;-71
2022/11/10 04:29:00;;;;;;;17.67;4.60;;;10.80;99.90;;;;;;5079081;28;20033;-71
2022/11/10 04:31:29;;;;;;;15.73;3.72;;;10.80;99.90;;;;;;5079791;28;20112;-71
2022/11/10 04:33:57;;;;;;;16.27;5.20;;;10.80;99.90;;;;;;5078986;28;20332;-71
2022/11/10 04:36:29;;;;;;;13.02;3.55;;;10.80;99.90;;;;;;5079600;28;20446;-72
2022/11/10 04:38:57;;;;;;;19.35;4.75;;;10.80;99.90;;;;;;5078981;28;20028;-71
2022/11/10 04:41:30;;;;;;;17.25;3.83;;;10.80;99.90;;;;;;5078876;28;20351;-71
2022/11/10 04:43:58;;;;;;;11.57;4.65;;;10.80;99.90;;;;;;5078828;28;20037;-71
2022/11/10 04:46:28;;;;;;;11.77;3.90;;;10.80;99.90;;;;;;5078921;28;20016;-71
2022/11/10 04:48:56;;;;;;;17.63;3.75;;;10.80;99.90;;;;;;5078806;28;20024;-71
2022/11/10 04:51:27;;;;;;;20.60;3.33;;;10.80;99.90;;;;;;5079878;28;20282;-71
2022/11/10 04:53:55;;;;;;;14.32;3.15;;;10.80;99.90;;;;;;5078725;28;20040;-71
2022/11/10 04:56:23;;;;;;;15.13;3.22;;;10.80;99.90;;;;;;5061072;28;20020;-71
2022/11/10 04:58:52;;;;;;;11.05;3.50;;;10.90;99.90;;;;;;5078587;28;20017;-71
2022/11/10 05:01:21;;;;;;;14.35;4.13;;;10.80;99.90;;;;;;5078259;28;20017;-71
2022/11/10 05:03:49;;;;;;;15.15;3.92;;;10.90;99.90;;;;;;5060626;28;20036;-71
2022/11/10 05:06:17;;;;;;;15.63;4.72;;;10.90;99.90;;;;;;5078617;28;20027;-71
2022/11/10 05:08:45;;;;;;;15.73;3.85;;;10.90;99.90;;;;;;5078403;28;20021;-71
2022/11/10 05:11:12;;;;;;;16.25;4.07;;;10.80;99.90;;;;;;5078359;28;20017;-71
2022/11/10 05:13:40;;;;;;;17.02;3.92;;;10.90;99.90;;;;;;5061237;28;20024;-71
2022/11/10 05:16:08;;;;;;;11.70;3.72;;;10.80;99.90;;;;;;5078594;28;20024;-71
2022/11/10 05:18:36;;;;;;;16.95;4.72;;;10.90;99.90;;;;;;5078231;28;20499;-71
2022/11/10 05:21:04;;;;;;;24.77;3.67;;;10.80;99.90;;;;;;5078699;28;20028;-71
2022/11/10 05:23:37;;;;;;;22.70;3.95;;;10.90;99.90;;;;;;5078067;28;20107;-71
2022/11/10 05:26:07;;;;;;;15.55;3.78;;;10.90;99.90;;;;;;5078121;28;20024;-71
2022/11/10 05:28:34;;;;;;;18.90;3.90;;;10.90;99.90;;;;;;5078063;28;20083;-71
2022/11/10 05:31:02;;;;;;;14.43;3.55;;;10.90;99.90;;;;;;5077939;28;20031;-71
2022/11/10 05:33:30;;;;;;;14.85;3.85;;;10.90;99.90;;;;;;5077732;28;20107;-71
2022/11/10 05:35:57;;;;;;;19.55;3.97;;;10.90;99.90;;;;;;5078029;28;20023;-71
2022/11/10 05:38:25;;;;;;;19.58;3.65;;;10.90;99.90;;;;;;5077769;28;20024;-71
2022/11/10 05:40:52;;;;;;;16.75;4.93;;;10.80;99.90;;;;;;5078085;28;20028;-71
2022/11/10 05:43:20;;;;;;;15.02;3.75;;;10.80;99.90;;;;;;5077604;28;20024;-71
2022/11/10 05:45:48;;;;;;;18.33;3.72;;;10.90;99.90;;;;;;5078268;28;20035;-71
2022/11/10 05:48:15;;;;;;;11.65;3.83;;;10.80;99.90;;;;;;5077800;28;20046;-72
2022/11/10 05:50:43;;;;;;;17.67;4.57;;;10.80;99.90;;;;;;5060304;28;20017;-71
2022/11/10 05:53:11;;;;;;;12.95;4.03;;;10.80;99.90;;;;;;5077530;28;20027;-71
2022/11/10 05:55:38;;;;;;;15.43;3.38;;;10.80;99.90;;;;;;5077572;28;20029;-71
2022/11/10 05:58:06;;;;;;;15.77;3.55;;;10.80;99.90;;;;;;5077988;28;20031;-71
2022/11/10 06:00:34;;;;;;;15.25;3.30;;;10.80;99.90;;;;;;5060358;28;20024;-71
2022/11/10 06:03:04;;;;;;;10.80;3.33;;;10.90;99.90;;;;;;5076943;28;20041;-71
2022/11/10 06:05:34;;;;;;;14.23;3.53;;;10.80;99.90;;;;;;5077953;28;20044;-71
2022/11/10 06:08:03;;;;;;;18.45;5.63;;;10.90;99.90;;;;;;5077262;28;20021;-71
2022/11/10 06:10:32;;;;;;;18.77;2.88;;;10.90;99.90;;;;;;5059434;28;20133;-71
2022/11/10 06:12:59;;;;;;;17.00;4.20;;;10.90;99.90;;;;;;5077146;28;20024;-71
2022/11/10 06:15:27;;;;;;;14.98;3.22;;;10.90;99.90;;;;;;5059534;28;20032;-71
2022/11/10 06:17:55;;;;;;;8.32;3.60;;;10.90;99.90;;;;;;5076959;28;20090;-71
2022/11/10 06:20:24;;;;;;;17.38;3.53;;;10.90;99.90;;;;;;5077571;28;20025;-71
2022/11/10 06:23:10;;;;;;;23.58;3.75;;;10.90;99.90;;;;;;5077434;28;20404;-71
2022/11/10 06:25:39;;;;;;;14.18;3.65;;;10.90;99.90;;;;;;5077392;28;20029;-71
2022/11/10 06:28:08;;;;;;;18.08;4.20;;;10.90;99.90;;;;;;5077186;28;20025;-71
2022/11/10 06:30:37;;;;;;;19.40;4.68;;;11.00;99.90;;;;;;5077460;28;20066;-71
2022/11/10 06:33:04;;;;;;;16.05;3.90;;;10.90;99.90;;;;;;5076765;28;20096;-71
2022/11/10 06:35:31;;;;;;;19.70;5.38;;;11.00;99.90;;;;;;5076967;28;20024;-71
2022/11/10 06:38:10;;;;;;;15.93;3.97;;;11.00;99.90;;;;;;5077069;28;20423;-73
2022/11/10 06:40:37;;;;;;;14.00;3.83;;;11.00;99.90;;;;;;5077134;28;20043;-73
2022/11/10 06:43:04;;;;;;;19.52;5.43;;;11.00;99.90;;;;;;5076736;28;20073;-75
2022/11/10 06:45:32;;;;;;;13.13;4.22;;;11.00;99.90;;;;;;5076456;28;20017;-75
2022/11/10 06:48:05;;;;;;;15.48;3.85;;;11.00;99.90;;;;;;5075695;28;20024;-75
2022/11/10 06:50:32;;;;;;;20.77;3.70;;;11.00;99.90;;;;;;5077265;28;20300;-75
2022/11/10 06:53:00;;;;;;;10.02;3.65;;;11.00;99.90;;;;;;5077108;28;20016;-75
2022/11/10 06:55:28;;;;;;;17.65;4.57;;;11.00;99.90;;;;;;5075683;28;20036;-74
2022/11/10 06:57:56;;;;;;;18.27;4.75;;;11.00;99.90;;;;;;5075679;28;20086;-76
2022/11/10 07:00:24;;;;;;;20.23;4.95;;;11.00;99.90;;;;;;5076813;28;20029;-75
2022/11/10 07:03:07;;;;;;;15.90;5.35;;;11.00;99.90;;;;;;5055244;28;20049;-75
2022/11/10 07:05:36;;;;;;;16.80;4.95;;;11.00;99.90;;;;;;5056824;28;20021;-76
2022/11/10 07:08:15;;;;;;;15.20;5.05;;;11.00;99.90;;;;;;5056468;28;20096;-76
2022/11/10 07:10:46;;;;;;;15.75;4.97;;;11.00;99.90;;;;;;5055600;28;20356;-75
2022/11/10 07:13:13;;;;;;;19.65;4.75;;;11.00;99.90;;;;;;5056454;28;20032;-75
2022/11/10 07:15:40;;;;;;;14.52;4.68;;;11.10;99.90;;;;;;5056486;28;20032;-73
2022/11/10 07:18:08;;;;;;;14.35;3.97;;;11.10;99.90;;;;;;5056836;28;20025;-75
2022/11/10 07:20:35;;;;;;;11.73;4.47;;;11.10;99.90;;;;;;5056821;28;20020;-73
2022/11/10 07:23:05;;;;;;;15.18;4.00;;;11.10;99.90;;;;;;5056325;28;20109;-74
2022/11/10 07:25:34;;;;;;;14.23;4.60;;;11.10;99.90;;;;;;5056373;28;20021;-76
2022/11/10 07:28:04;;;;;;;9.50;3.45;;;11.20;99.90;;;;;;5056258;28;20023;-71
2022/11/10 07:30:33;;;;;;;18.55;4.35;;;11.20;99.90;;;;;;5056750;28;20025;-72
2022/11/10 07:33:06;;;;;;;12.73;4.20;;;11.20;99.90;;;;;;5056097;28;20101;-71
2022/11/10 07:35:34;;;;;;;11.45;3.22;;;11.20;99.90;;;;;;5056496;28;20433;-70
2022/11/10 07:38:06;;;;;;;18.88;4.40;;;11.20;99.90;;;;;;5056678;28;20048;-72
2022/11/10 07:40:34;;;;;;;14.48;3.63;;;11.30;99.90;;;;;;5056548;28;20017;-71
2022/11/10 07:43:02;;;;;;;13.23;3.50;;;11.30;99.90;;;;;;5056021;28;20413;-71
2022/11/10 07:45:30;;;;;;;10.50;3.22;;;11.30;99.90;;;;;;5056636;28;20025;-72
2022/11/10 07:48:05;;;;;;;16.35;4.07;;;11.40;99.90;;;;;;5054924;28;20108;-71
2022/11/10 07:50:33;;;;;;;17.85;3.45;;;11.40;99.90;;;;;;5056177;28;20017;-70
2022/11/10 07:53:15;;;;;;;17.13;3.75;;;11.40;99.90;;;;;;5055887;28;20319;-71
2022/11/10 07:55:44;;;;;;;13.73;2.92;;;11.50;99.90;;;;;;5058157;28;20025;-70
2022/11/10 07:58:13;;;;;;;13.70;3.78;;;11.50;99.90;;;;;;5059652;28;20036;-71
2022/11/10 08:00:41;;;;;;;10.05;2.90;;;11.50;99.90;;;;;;5060110;28;20035;-71
2022/11/10 08:03:14;;;;;;;23.63;3.75;;;11.50;99.90;;;;;;5076790;28;20119;-71
2022/11/10 08:05:42;;;;;;;9.45;3.33;;;11.50;99.90;;;;;;5080185;28;20070;-71
2022/11/10 08:08:10;;;;;;;9.63;3.33;;;11.50;99.90;;;;;;5079546;28;20023;-71
2022/11/10 08:10:39;;;;;;;13.70;3.42;;;11.50;99.90;;;;;;5079686;28;20021;-71
2022/11/10 08:13:10;;;;;;;21.05;4.47;;;11.50;99.90;;;;;;5079458;28;20450;-71
2022/11/10 08:15:39;;;;;;;14.57;3.55;;;11.60;99.90;;;;;;5079980;28;20426;-71
2022/11/10 08:18:15;;;;;;;11.00;2.65;;;11.50;99.90;;;;;;5079293;28;20021;-71
2022/11/10 08:20:42;;;;;;;13.32;3.63;;;11.50;99.90;;;;;;5079513;28;20016;-71
2022/11/10 08:23:09;;;;;;;27.05;4.40;;;11.60;99.90;;;;;;5079187;28;20028;-71
2022/11/10 08:25:38;;;;;;;10.63;2.58;;;11.70;99.90;;;;;;5079806;28;20027;-71
2022/11/10 08:28:10;;;;;;;13.55;2.63;;;11.70;99.90;;;;;;5079202;28;20103;-70
2022/11/10 08:30:39;;;;;;;12.80;3.05;;;11.80;99.90;;;;;;5079382;28;20029;-70
2022/11/10 08:33:09;;;;;;;15.18;3.53;;;11.80;99.90;;;;;;5079043;28;20027;-70
2022/11/10 08:35:41;;;;;;;12.68;3.03;;;11.80;99.90;;;;;;5079404;28;20077;-69
2022/11/10 08:38:14;;;;;;;12.60;3.70;;;11.90;99.90;;;;;;5078909;28;20021;-70
2022/11/10 08:40:42;;;;;;;14.88;2.80;;;11.90;99.90;;;;;;5079119;28;20481;-71
2022/11/10 08:43:10;;;;;;;14.23;3.55;;;11.90;99.90;;;;;;5078721;28;20028;-71
2022/11/10 08:45:41;;;;;;;12.45;2.78;;;12.00;99.90;;;;;;5078900;28;20020;-70
2022/11/10 08:48:10;;;;;;;18.65;3.10;;;12.00;99.90;;;;;;5078711;28;20103;-70
2022/11/10 08:50:39;;;;;;;13.25;3.00;;;12.00;99.90;;;;;;5079215;28;20308;-70
2022/11/10 08:53:49;;;;;;;15.32;3.20;;;12.00;99.90;;;;;;5060971;28;20021;-70
2022/11/10 08:56:16;;;;;;;21.52;3.40;;;12.00;99.90;;;;;;5078722;28;20021;-70
2022/11/10 08:58:43;;;;;;;14.57;2.97;;;12.10;99.90;;;;;;5061527;28;20024;-70
2022/11/10 09:01:11;;;;;;;24.35;4.85;;;12.10;99.90;;;;;;5078373;28;20305;-70
2022/11/10 09:03:39;;;;;;;12.18;3.28;;;12.10;99.90;;;;;;5078329;28;20428;-70
2022/11/10 09:06:06;;;;;;;21.58;4.22;;;12.20;99.90;;;;;;5078501;28;20024;-70
2022/11/10 09:08:33;;;;;;;14.20;4.18;;;12.30;99.90;;;;;;5060241;28;20021;-70
2022/11/10 09:11:04;;;;;;;13.40;3.08;;;12.30;99.90;;;;;;5078548;28;20021;-70
2022/11/10 09:13:31;;;;;;;8.48;2.25;;;12.30;99.90;;;;;;5078747;28;20016;-71
2022/11/10 09:16:04;;;;;;;17.10;3.85;;;12.40;99.90;;;;;;5078263;28;20158;-70
2022/11/10 09:18:31;;;;;;;23.08;3.22;;;12.40;99.90;;;;;;5060555;28;20025;-70
2022/11/10 09:21:01;;;;;;;15.73;3.25;;;12.40;99.90;;;;;;5078441;28;20051;-70
2022/11/10 09:23:28;;;;;;;11.43;2.53;;;12.40;99.90;;;;;;5078087;28;20052;-70
2022/11/10 09:25:56;;;;;;;11.82;2.72;;;12.40;99.90;;;;;;5078730;28;20411;-70
2022/11/10 09:28:23;;;;;;;8.43;2.58;;;12.40;99.90;;;;;;5078084;28;20031;-70
2022/11/10 09:30:51;;;;;;;11.50;2.10;;;12.50;99.90;;;;;;5078110;28;20070;-70
2022/11/10 09:33:19;;;;;;;14.00;2.90;;;12.60;99.90;;;;;;5078271;28;20382;-70
2022/11/10 09:35:46;;;;;;;10.18;2.55;;;12.70;99.90;;;;;;5078196;28;20021;-70
2022/11/10 09:38:14;;;;;;;12.02;2.75;;;12.80;99.90;;;;;;5077879;28;20108;-70
2022/11/10 09:41:07;;;;;;;12.07;2.75;;;12.80;99.90;;;;;;5078279;28;20032;-70
2022/11/10 09:43:46;;;;;;;14.45;2.45;;;12.90;99.90;;;;;;5077974;28;20073;-70
2022/11/10 09:46:24;;;;;;;12.07;2.53;;;12.80;99.90;;;;;;5078205;28;20405;-70
2022/11/10 09:49:00;;;;;;;16.15;3.50;;;12.90;99.90;;;;;;5077616;28;20020;-70
2022/11/10 09:51:36;;;;;;;19.27;2.53;;;12.90;99.90;;;;;;5077665;28;20324;-70
2022/11/10 09:54:30;;;;;;;15.90;2.30;;;13.00;99.90;;;;;;5077549;28;20073;-70
2022/11/10 09:57:02;;;;;;;11.77;2.10;;;13.10;99.90;;;;;;5077430;28;20263;-70
2022/11/10 09:59:33;;;;;;;19.15;2.63;;;13.10;99.90;;;;;;5077892;28;20035;-70
2022/11/10 10:02:22;;;;;;;14.90;2.45;;;13.20;99.90;;;;;;5076863;28;20054;-70
2022/11/10 10:05:17;;;;;;;10.98;2.90;;;13.20;99.90;;;;;;5059585;28;20309;-70
2022/11/10 10:07:50;;;;;;;18.60;2.38;;;13.10;99.90;;;;;;5077548;28;20416;-70
2022/11/10 10:10:48;;;;;;;16.58;2.22;;;13.10;99.90;;;;;;5077225;28;20027;-70
2022/11/10 10:13:25;;;;;;;11.15;2.97;;;13.10;99.90;;;;;;5059371;28;20025;-70
2022/11/10 10:16:06;;;;;;;19.08;3.25;;;13.00;99.90;;;;;;5077579;28;20025;-70
2022/11/10 10:18:49;;;;;;;19.48;3.58;;;12.90;99.90;;;;;;5076862;28;20081;-70
2022/11/10 10:21:40;;;;;;;19.60;2.72;;;12.90;99.90;;;;;;5077622;28;20029;-70
2022/11/10 10:24:14;;;;;;;10.80;2.58;;;12.90;99.90;;;;;;5059119;28;20089;-70
2022/11/10 10:26:56;;;;;;;12.25;2.35;;;13.00;99.90;;;;;;5077115;28;20451;-70
2022/11/10 10:29:37;;;;;;;18.45;2.83;;;13.00;99.90;;;;;;5077536;28;20024;-70
2022/11/10 10:32:11;;;;;;;10.85;2.15;;;13.00;99.90;;;;;;5076796;28;20056;-70
2022/11/10 10:34:40;;;;;;;10.07;2.35;;;13.00;99.90;;;;;;5077384;28;20360;-71
2022/11/10 10:37:41;;;;;;;10.02;2.67;;;13.00;99.90;;;;;;5077850;28;20290;-71
2022/11/10 10:40:19;;;;;;;11.88;2.47;;;13.20;99.90;;;;;;5077049;28;20021;-71
2022/11/10 10:42:46;;;;;;;13.27;2.35;;;13.20;99.90;;;;;;5076693;28;20293;-70
2022/11/10 10:45:20;;;;;;;12.93;2.50;;;13.20;99.90;;;;;;5059420;28;20043;-70
2022/11/10 10:47:53;;;;;;;11.90;2.75;;;13.20;99.90;;;;;;5058858;28;20093;-71
2022/11/10 10:50:35;;;;;;;13.90;2.42;;;13.30;99.90;;;;;;5076772;28;20020;-70
2022/11/10 10:53:14;;;;;;;17.58;3.28;;;13.30;99.90;;;;;;5076638;28;20111;-70
2022/11/10 10:56:26;;;;;;;13.27;1.80;;;13.30;99.90;;;;;;5058849;28;20024;-70
2022/11/10 10:59:00;;;;;;;9.75;1.85;;;13.40;99.90;;;;;;5074011;28;20037;-71
2022/11/10 11:01:33;;;;;;;16.95;3.17;;;13.50;99.90;;;;;;5076148;28;20452;-71
2022/11/10 11:04:06;;;;;;;10.55;2.08;;;13.60;99.90;;;;;;5076482;28;20024;-69
2022/11/10 11:06:35;;;;;;;7.78;1.50;;;13.60;99.90;;;;;;5076486;28;20024;-69
2022/11/10 11:09:15;;;;;;;13.50;1.73;;;13.60;99.90;;;;;;5076602;28;20020;-69
2022/11/10 11:11:59;;;;;;;12.20;2.50;;;13.60;99.90;;;;;;5076711;28;20020;-69
2022/11/10 11:14:28;;;;;;;13.70;2.08;;;13.60;99.90;;;;;;5076477;28;20021;-69
2022/11/10 11:17:20;;;;;;;14.77;2.92;;;13.70;99.90;;;;;;5076329;28;20383;-71
2022/11/10 11:19:53;;;;;;;10.70;2.25;;;13.60;99.90;;;;;;5076732;28;20020;-71
2022/11/10 11:22:39;;;;;;;8.32;1.80;;;13.60;99.90;;;;;;5076291;28;20438;-71
2022/11/10 11:25:39;;;;;;;9.23;1.80;;;13.60;99.90;;;;;;5076322;28;20028;-71
2022/11/10 11:28:20;;;;;;;12.45;1.92;;;13.60;99.90;;;;;;5076460;28;20079;-71
2022/11/10 11:31:14;;;;;;;14.50;1.90;;;13.60;99.90;;;;;;5060617;28;20024;-70
2022/11/10 11:33:46;;;;;;;10.27;2.50;;;13.60;99.90;;;;;;5080764;28;20382;-71
2022/11/10 11:36:36;;;;;;;20.05;2.53;;;13.60;99.90;;;;;;5079270;28;20107;-70
2022/11/10 11:39:17;;;;;;;7.57;1.70;;;13.60;99.90;;;;;;5080213;28;20025;-71
2022/11/10 11:42:07;;;;;;;7.80;3.60;;;13.60;99.90;;;;;;5080647;28;20297;-71
2022/11/10 11:45:04;;;;;;;7.18;1.42;;;13.60;99.90;;;;;;5080057;28;20025;-70
2022/11/10 11:48:08;;;;;;;11.48;2.28;;;13.70;99.90;;;;;;5057780;28;20029;-68
2022/11/10 11:50:49;;;;;;;10.82;1.65;;;13.70;99.90;;;;;;5080635;28;20043;-71
2022/11/10 11:53:41;;;;;;;18.23;2.45;;;13.80;99.90;;;;;;5079851;28;20032;-69
2022/11/10 11:56:31;;;;;;;12.27;2.22;;;13.90;99.90;;;;;;5080368;28;20107;-68
2022/11/10 11:59:06;;;;;;;9.00;1.73;;;13.90;99.90;;;;;;5079677;28;20439;-69
2022/11/10 12:02:02;;;;;;;13.60;2.35;;;14.10;99.90;;;;;;5079715;28;20079;-71
2022/11/10 12:04:47;;;;;;;12.25;2.03;;;14.10;99.90;;;;;;5079838;28;20035;-71
2022/11/10 12:07:46;;;;;;;10.73;1.40;;;14.20;99.90;;;;;;5080086;28;20023;-71
2022/11/10 12:10:44;;;;;;;7.03;1.17;;;14.40;99.90;;;;;;5079788;28;20109;-71
2022/11/10 12:13:36;;;;;;;12.88;1.63;;;14.60;99.90;;;;;;5079404;28;20439;-71
2022/11/10 12:16:16;;;;;;;5.93;2.05;;;14.80;99.90;;;;;;5079688;28;20024;-71
2022/11/10 12:19:18;;;;;;;12.90;2.33;;;14.90;99.90;;;;;;5080000;28;20025;-70
2022/11/10 12:22:09;;;;;;;7.03;1.27;;;15.10;99.90;;;;;;5061564;28;20057;-71
2022/11/10 12:25:10;;;;;;;12.02;3.30;;;15.00;99.90;;;;;;5079337;28;20024;-71
2022/11/10 12:27:45;;;;;;;10.02;1.67;;;14.90;99.90;;;;;;5079575;28;20021;-71
2022/11/10 12:30:16;;;;;;;17.77;2.58;;;14.90;99.90;;;;;;5079699;28;20020;-70
2022/11/10 12:32:49;;;;;;;9.73;1.63;;;14.90;99.90;;;;;;5079182;28;20097;-71
2022/11/10 12:35:37;;;;;;;8.27;2.03;;;14.90;99.90;;;;;;5079702;28;20404;-70
2022/11/10 12:38:16;;;;;;;21.15;4.07;;;14.70;99.90;;;;;;5079084;28;20054;-71
2022/11/10 12:40:51;;;;;;;17.10;3.67;;;14.70;99.90;;;;;;5079628;28;20032;-71
2022/11/10 12:43:34;;;;;;;10.60;2.10;;;14.70;99.90;;;;;;5078082;28;20039;-71
2022/11/10 12:46:09;;;;;;;8.95;1.55;;;14.70;99.90;;;;;;5079352;28;20081;-71
2022/11/10 12:48:54;;;;;;;12.00;1.75;;;14.70;99.90;;;;;;5078870;28;20177;-72
2022/11/10 12:51:38;;;;;;;7.57;1.63;;;14.70;99.90;;;;;;5079326;28;20404;-69
2022/11/10 12:54:09;;;;;;;15.30;2.53;;;14.70;99.90;;;;;;5079508;28;20416;-69
2022/11/10 12:56:56;;;;;;;13.10;1.95;;;14.60;99.90;;;;;;5078606;28;20412;-69
2022/11/10 12:59:39;;;;;;;7.10;1.38;;;14.60;99.90;;;;;;5078602;28;20041;-69
2022/11/10 13:02:28;;;;;;;10.20;2.15;;;14.60;99.90;;;;;;5057247;28;20045;-69
2022/11/10 13:05:13;;;;;;;11.88;1.83;;;14.60;99.90;;;;;;5059297;28;20025;-69
2022/11/10 13:08:04;;;;;;;8.82;1.90;;;14.60;99.90;;;;;;5058792;28;20025;-69
2022/11/10 13:10:32;;;;;;;13.25;3.15;;;14.60;99.90;;;;;;5058783;28;20023;-69
2022/11/10 13:13:13;;;;;;;13.98;1.88;;;14.50;99.90;;;;;;5058954;28;20021;-69
2022/11/10 13:15:45;;;;;;;11.93;1.73;;;14.50;99.90;;;;;;5057453;28;20025;-69
2022/11/10 13:18:33;;;;;;;11.85;1.90;;;14.50;99.90;;;;;;5058179;28;20035;-69
2022/11/10 13:21:01;;;;;;;17.67;2.50;;;14.50;99.90;;;;;;5058877;28;20417;-69
2022/11/10 13:23:58;;;;;;;13.13;2.60;;;14.40;99.90;;;;;;5058691;28;20029;-69
2022/11/10 13:26:44;;;;;;;13.15;1.85;;;14.30;99.90;;;;;;5057949;28;20405;-69
2022/11/10 13:29:33;;;;;;;18.20;2.38;;;14.40;99.90;;;;;;5058713;28;20031;-69